Hlavní strana
METAR-TAF:

METAR-TAF

Letiště :

Ouagadougou, Burkina Faso

zeměpisná šířka: 12-21N, zeměpisná délka: 001-31W, výška: 316 m

Aktuální stav počasí

Zpráva byla vytvořena před 30 minutami, v 10:00 UTC
Severovýchodní vítr 13 kt
Teplota 31°C
Vlhkost vzduchu 11%
Tlak 1014 hPa
Viditelnost: 8000 m

METAR: DFFD 251000Z 04013KT 8000 NSC 31/M03 Q1014 NOSIG

Čas: 10:30 (10:30 UTC)

Předpověď počasí

Zpráva byla vytvořena před 5 hodinami a 30 minutami, v 05:00 UTC
Předpověď platná od 25 v 06 UTC do 26 v 12 UTC
Východoseverovýchodní vítr 10 kt
Viditelnost: 8000 m
Dočasný
od 25 v 06 UTC do 25 v 10 UTC
Viditelnost: 3500 m
zákal
Změna
od 26 v 05 UTC do 26 v 07 UTC
Viditelnost: 3500 m
zákal

TAF: DFFD 250500Z 2506/2612 06010KT 8000 NSC TEMPO 2506/2510 3500 HZ BECMG 2605/2607 3500 HZ

Stav a předpovědi počasí z více než 4 000 letišť (zprávy METAR a TAF).

Červené a žluté tečky na mapě představují dostupné meteorologické stanice.

Když kurzor umístíte na tečku, zobrazí se název stanice.

Pak kliknutím zobrazíte stav a předpověď počasí.

Chcete-li změnit mapu, kliknutím na zelené tlačítko se znaménkem +mapu přiblížíte, kliknutím na zelené tlačítko se znaménkem – mapu oddálíte a kliknutím na zelené šipky přejdete na sousední mapy.


METAR-TAF: